South Pomfret, Vermont
Current Conditions -  °F | °C
As of 10:06 PM on Monday 22 Dec 2014 (Local Time) from KLEB Reporting Station
Overcast Overcast  
Wind Chill:   Ceiling: 900
Heat Index:   Visibility: 9mi
Dew Point: -1°   Wind: 0mph
Humidity: 85%   Direction: NA
Pressure: 30.3"   Gusts: NA
Location:  43.66°N, 72.54°W
Report Text: KLEB 230306Z AUTO 00000KT 9SM OVC009 01/M01 A3030 RMK AO2 T00111011
Loading
Personal Weather Stations






























Interactive Weather Map New forecast layout! Learn more

10-Day Weather Forecast

Advertisements
Track Severe Weather on mobile